Hauptseite
METAR-TAF:

METAR-TAF

Flughäfen :

Riviera Airport

Albenga, Italien

Breite: 44-03N, Länge: 008-07E, Höhe: 45 m

Beobachtung

Neuester Wetterbericht von vor 10 Stunden und 47 Minuten, um 18:50 UTC
Wind 5 kt aus West/Nordwest
Temperatur 26°C
Luftfeuchtigkeit 70%
Luftdruck 1014 hPa
Sichtweite 10 km oder mehr
keine Wolken unter 1500 m und keine Kumulonimbus oder Gewitterwolken

METAR: LIMG 091850Z 29005KT CAVOK 26/20 Q1014

Zeit: 07:37 (05:37 UTC)


TAF: fehlend

Wetterbeobachtungen und Prognosen von mehr als 4000 Flughäfen (METAR und TAF Bericht).

Die verfügbaren Stationen werden durch gelbe und rote Markierungen auf der Karte dargestellt.

Führen Sie die Maus auf sie, um den Namen der Station zu sehen.

Darauf klicken, um die Beobachtung von Wetterbeobachtungen und Prognosen zu sehen.

Um die Karte zu ändern : klicken Sie auf den grünen Tasten mit einem schwarzen Kreuz Zum Vergrößern, auf den grünen Button mit einem Gedankenstrich zu verkleinern, oder auf die grünen Pfeile für benachbarte Karten.


METAR-TAF: